Aéroport de Guadeloupe - Pôle Caraïbes, Guadeloupe

22:42 AST le 22 mai 2015 (GMT -0400)
Le Raizet | | Change Station
CLOSE
Current Station
Aéroport
Location: Le Raizet Airport,
Altitude: 26 ft
Stations météo à proximité

Alt. 26 ft 16.27 °N, 61.53 °W | Updated 12 minutes ago

Clear
Ciel dégagé
77 ° F
Paraît 77 ° F
N
4
Vent Variable Vent de ESE

Aujourd'hui
Haut(e) -- | Bas -- ° F
--% Risque de précip.
Hier
Haut(e) -- | Bas -- ° F
Precip. -- pouce
5:34 AM 6:31 PM
Lune montante, 26% visible
Pression 30.12 pouce
Visibilité 6.2 Miles terrestres
Nuages
Point de rosée 70 ° F
Humidité 78%
Précipitations 0.00 pouce
Profondeur de la couche neigeuse Non disponible.
UV Non disponible.
Pollen Non disponible.
Qualité de l'air Non disponible.
Flu Activity Non disponible.
METAR TFFR 230230Z AUTO 12003KT 9999 NSC 25/21 Q1020

More Conditions Fewer Conditions

Pression 30.12 pouce
Visibilité 6.2 Miles terrestres
Nuages
Point de rosée 70 ° F
Humidité 78%
Précipitations 0.00 pouce
Profondeur de la couche neigeuse Non disponible.
UV Non disponible.
Pollen Non disponible.
Qualité de l'air Non disponible.
Flu Activity Non disponible.
METAR TFFR 230230Z AUTO 12003KT 9999 NSC 25/21 Q1020

More Conditions Fewer Conditions

10-Day Weather Forecast

Almanac

Astronomie

May. 22, 2015 Lever Coucher
Temps réel
Crépuscule civil
Crépuscule nautique
Crépuscule astronomique
Lune
Durée de lumière visible
Longueur du jour
Tomorrow will be .
, % of the Moon is Illuminated

Extrêmes aujourd'hui

Country Highs Country Lows

Community

WunderPhotos

Upload Photos

1,823,371 Photos téléchargées !

WunderBlogs® & News

Nearby

Qualité de l'air

  Qualité de l'air Indice de la qualité de l'air Polluant
Not available.

Épaisseur de neige

Station Depth Altitude

Activité sismique

Ville Distance Mag. Time & Date
Minimum magnitude displayed is 2.5.

Températures des eaux côtières

Lieu Température

Stations

Stations météo à proximité

Emplacement de la station Température Refroidissement éolien Point de rosée Humidité Vent Precip. Alt. Mise à jour Type